Normal, IL

2:45 PM CST on January 25, 2015 (GMT -0600)
Across from IWU | Change Station
CLOSE
Current Station
Personal Weather Station
Location: Bloomington, IL
Elevation: 810 ft
Nearby Weather Stations

Elev 810 ft 40.49 °N, 88.99 °W | Updated 4 minutes ago

Overcast
Overcast
34.0 °F
Feels Like 26 °F
N
11.0
Wind Variable Wind from NNE
Gusts 19.0 mph

Today
High -- | Low -- °F
--% Chance of Precip.
Yesterday
High -- | Low -- °F
Precip. -- in
7:11 AM 5:05 PM
Waxing Crescent, 35% visible
Pressure 29.70 in
Visibility 4.0 miles
Clouds Overcast 400 ft
Windchill 26 °F
Dew Point 33 °F
Humidity 96%
Rainfall 0.20 in
Snow Depth Not available.
UV 1 out of 12
Pollen .10 out of 12
Air Quality Not available.
Flu Activity Not available.
SPECI KBMI 252009Z 04018G25KT 4SM -SN BR OVC004 01/01 A2970 RMK AO2 UPE1958SNB1958 P0000

More Conditions Fewer Conditions

Pressure 29.70 in
Visibility 4.0 miles
Clouds Overcast 400 ft
Windchill 26 °F
Dew Point 33 °F
Humidity 96%
Rainfall 0.20 in
Snow Depth Not available.
UV 1 out of 12
Pollen .10 out of 12
Air Quality Not available.
Flu Activity Not available.
SPECI KBMI 252009Z 04018G25KT 4SM -SN BR OVC004 01/01 A2970 RMK AO2 UPE1958SNB1958 P0000

More Conditions Fewer Conditions

10-Day Weather Forecast

Almanac

Astronomy

Jan. 25, 2015 Rise Set
Actual Time
Civil Twilight
Nautical Twilight
Astronomical Twilight
Moon
Length of Visible Light
Length of Day
Tomorrow will be .
, % of the Moon is Illuminated

Today's Extremes

State Highs State Lows

Community

WunderPhotos

Upload Photos

1,790,041 photos uploaded!

WunderBlogs® & News

Nearby

Air Quality

  Air Quality AQ Index Pollutant
Not available.

Snow Depth

Station Depth Elevation

Earthquake Activity

City Distance Mag. Time & Date
Minimum magnitude displayed is 2.5.

Coastal Water Temperatures

Place Temperature

Nearby Weather Stations